sensor_id;sensor_type;location;lat;lon;timestamp;temperature;humidity
36716;DHT22;22699;51.034;3.730;2022-09-11T00:01:07;17.10;99.90
36716;DHT22;22699;51.034;3.730;2022-09-11T00:03:35;17.00;99.90
36716;DHT22;22699;51.034;3.730;2022-09-11T00:06:03;17.10;99.90
36716;DHT22;22699;51.034;3.730;2022-09-11T00:08:30;17.00;99.90
36716;DHT22;22699;51.034;3.730;2022-09-11T00:11:02;17.00;99.90
36716;DHT22;22699;51.034;3.730;2022-09-11T00:13:29;17.00;99.90
36716;DHT22;22699;51.034;3.730;2022-09-11T00:15:56;16.90;99.90
36716;DHT22;22699;51.034;3.730;2022-09-11T00:18:22;16.90;99.90
36716;DHT22;22699;51.034;3.730;2022-09-11T00:20:50;16.80;99.90
36716;DHT22;22699;51.034;3.730;2022-09-11T00:23:17;17.00;99.90
36716;DHT22;22699;51.034;3.730;2022-09-11T00:25:44;16.90;99.90
36716;DHT22;22699;51.034;3.730;2022-09-11T00:28:21;16.90;99.90
36716;DHT22;22699;51.034;3.730;2022-09-11T00:31:10;16.90;99.90
36716;DHT22;22699;51.034;3.730;2022-09-11T00:33:37;17.00;99.90
36716;DHT22;22699;51.034;3.730;2022-09-11T00:36:10;16.90;99.90
36716;DHT22;22699;51.034;3.730;2022-09-11T00:38:37;16.80;99.90
36716;DHT22;22699;51.034;3.730;2022-09-11T00:41:07;16.80;99.90
36716;DHT22;22699;51.034;3.730;2022-09-11T00:44:03;16.80;99.90
36716;DHT22;22699;51.034;3.730;2022-09-11T00:49:25;16.70;99.90
36716;DHT22;22699;51.034;3.730;2022-09-11T00:51:52;16.70;99.90
36716;DHT22;22699;51.034;3.730;2022-09-11T00:54:23;16.70;99.90
36716;DHT22;22699;51.034;3.730;2022-09-11T00:56:51;16.60;99.90
36716;DHT22;22699;51.034;3.730;2022-09-11T00:59:18;16.60;99.90
36716;DHT22;22699;51.034;3.730;2022-09-11T01:01:49;16.60;99.90
36716;DHT22;22699;51.034;3.730;2022-09-11T01:04:16;16.60;99.90
36716;DHT22;22699;51.034;3.730;2022-09-11T01:06:42;16.60;99.90
36716;DHT22;22699;51.034;3.730;2022-09-11T01:09:12;16.60;99.90
36716;DHT22;22699;51.034;3.730;2022-09-11T01:12:04;16.70;99.90
36716;DHT22;22699;51.034;3.730;2022-09-11T01:14:50;16.70;99.90
36716;DHT22;22699;51.034;3.730;2022-09-11T01:18:16;16.50;99.90
36716;DHT22;22699;51.034;3.730;2022-09-11T01:20:35;16.50;99.90
36716;DHT22;22699;51.034;3.730;2022-09-11T01:23:33;16.50;99.90
36716;DHT22;22699;51.034;3.730;2022-09-11T01:32:09;16.50;99.90
36716;DHT22;22699;51.034;3.730;2022-09-11T01:35:04;16.50;99.90
36716;DHT22;22699;51.034;3.730;2022-09-11T01:37:55;16.40;99.90
36716;DHT22;22699;51.034;3.730;2022-09-11T01:43:15;16.40;99.90
36716;DHT22;22699;51.034;3.730;2022-09-11T01:45:43;16.50;99.90
36716;DHT22;22699;51.034;3.730;2022-09-11T01:48:16;16.50;99.90
36716;DHT22;22699;51.034;3.730;2022-09-11T01:50:46;16.50;99.90
36716;DHT22;22699;51.034;3.730;2022-09-11T01:53:15;16.40;99.90
36716;DHT22;22699;51.034;3.730;2022-09-11T01:55:55;16.60;99.90
36716;DHT22;22699;51.034;3.730;2022-09-11T01:58:26;16.40;99.90
36716;DHT22;22699;51.034;3.730;2022-09-11T02:00:58;16.30;99.90
36716;DHT22;22699;51.034;3.730;2022-09-11T02:03:54;16.30;99.90
36716;DHT22;22699;51.034;3.730;2022-09-11T02:06:28;16.30;99.90
36716;DHT22;22699;51.034;3.730;2022-09-11T02:09:02;16.30;99.90
36716;DHT22;22699;51.034;3.730;2022-09-11T02:11:35;16.40;99.90
36716;DHT22;22699;51.034;3.730;2022-09-11T02:14:16;16.20;99.90
36716;DHT22;22699;51.034;3.730;2022-09-11T02:19:28;16.30;99.90
36716;DHT22;22699;51.034;3.730;2022-09-11T02:21:58;16.30;99.90
36716;DHT22;22699;51.034;3.730;2022-09-11T02:24:25;16.30;99.90
36716;DHT22;22699;51.034;3.730;2022-09-11T02:27:04;16.30;99.90
36716;DHT22;22699;51.034;3.730;2022-09-11T02:29:32;16.30;99.90
36716;DHT22;22699;51.034;3.730;2022-09-11T02:31:59;16.30;99.90
36716;DHT22;22699;51.034;3.730;2022-09-11T02:34:30;16.30;99.90
36716;DHT22;22699;51.034;3.730;2022-09-11T02:37:20;16.40;99.90
36716;DHT22;22699;51.034;3.730;2022-09-11T02:43:02;16.30;99.90
36716;DHT22;22699;51.034;3.730;2022-09-11T02:45:56;16.50;99.90
36716;DHT22;22699;51.034;3.730;2022-09-11T02:48:37;16.60;99.90
36716;DHT22;22699;51.034;3.730;2022-09-11T02:51:26;16.50;99.90
36716;DHT22;22699;51.034;3.730;2022-09-11T02:57:08;16.30;99.90
36716;DHT22;22699;51.034;3.730;2022-09-11T02:59:43;16.30;99.90
36716;DHT22;22699;51.034;3.730;2022-09-11T03:02:12;16.30;99.90
36716;DHT22;22699;51.034;3.730;2022-09-11T03:04:39;16.20;99.90
36716;DHT22;22699;51.034;3.730;2022-09-11T03:07:06;16.10;99.90
36716;DHT22;22699;51.034;3.730;2022-09-11T03:09:33;16.00;99.90
36716;DHT22;22699;51.034;3.730;2022-09-11T03:12:01;16.10;99.90
36716;DHT22;22699;51.034;3.730;2022-09-11T03:14:39;16.10;99.90
36716;DHT22;22699;51.034;3.730;2022-09-11T03:17:06;16.10;99.90
36716;DHT22;22699;51.034;3.730;2022-09-11T03:19:32;16.20;99.90
36716;DHT22;22699;51.034;3.730;2022-09-11T03:21:58;16.10;99.90
36716;DHT22;22699;51.034;3.730;2022-09-11T03:24:25;16.10;99.90
36716;DHT22;22699;51.034;3.730;2022-09-11T03:26:51;16.10;99.90
36716;DHT22;22699;51.034;3.730;2022-09-11T03:29:16;16.00;99.90
36716;DHT22;22699;51.034;3.730;2022-09-11T03:31:43;15.90;99.90
36716;DHT22;22699;51.034;3.730;2022-09-11T03:34:09;15.90;99.90
36716;DHT22;22699;51.034;3.730;2022-09-11T03:36:35;15.80;99.90
36716;DHT22;22699;51.034;3.730;2022-09-11T03:39:01;15.90;99.90
36716;DHT22;22699;51.034;3.730;2022-09-11T03:41:26;15.80;99.90
36716;DHT22;22699;51.034;3.730;2022-09-11T03:43:53;15.80;99.90
36716;DHT22;22699;51.034;3.730;2022-09-11T03:46:20;15.90;99.90
36716;DHT22;22699;51.034;3.730;2022-09-11T03:48:45;16.00;99.90
36716;DHT22;22699;51.034;3.730;2022-09-11T03:51:13;16.00;99.90
36716;DHT22;22699;51.034;3.730;2022-09-11T03:53:41;16.00;99.90
36716;DHT22;22699;51.034;3.730;2022-09-11T03:56:11;16.00;99.90
36716;DHT22;22699;51.034;3.730;2022-09-11T03:58:38;16.00;99.90
36716;DHT22;22699;51.034;3.730;2022-09-11T04:01:13;16.00;99.90
36716;DHT22;22699;51.034;3.730;2022-09-11T04:03:40;16.00;99.90
36716;DHT22;22699;51.034;3.730;2022-09-11T04:06:08;16.10;99.90
36716;DHT22;22699;51.034;3.730;2022-09-11T04:08:34;16.20;99.90
36716;DHT22;22699;51.034;3.730;2022-09-11T04:11:04;16.00;99.90
36716;DHT22;22699;51.034;3.730;2022-09-11T04:13:35;16.00;99.90
36716;DHT22;22699;51.034;3.730;2022-09-11T04:16:05;15.90;99.90
36716;DHT22;22699;51.034;3.730;2022-09-11T04:18:34;15.90;99.90
36716;DHT22;22699;51.034;3.730;2022-09-11T04:21:08;15.80;99.90
36716;DHT22;22699;51.034;3.730;2022-09-11T04:23:34;15.80;99.90
36716;DHT22;22699;51.034;3.730;2022-09-11T04:26:01;15.80;99.90
36716;DHT22;22699;51.034;3.730;2022-09-11T04:28:27;15.80;99.90
36716;DHT22;22699;51.034;3.730;2022-09-11T04:30:53;15.90;99.90
36716;DHT22;22699;51.034;3.730;2022-09-11T04:33:21;15.90;99.90
36716;DHT22;22699;51.034;3.730;2022-09-11T04:35:47;15.90;99.90
36716;DHT22;22699;51.034;3.730;2022-09-11T04:38:13;15.90;99.90
36716;DHT22;22699;51.034;3.730;2022-09-11T04:40:38;15.70;99.90
36716;DHT22;22699;51.034;3.730;2022-09-11T04:43:04;15.80;99.90
36716;DHT22;22699;51.034;3.730;2022-09-11T04:45:30;15.90;99.90
36716;DHT22;22699;51.034;3.730;2022-09-11T04:47:58;15.90;99.90
36716;DHT22;22699;51.034;3.730;2022-09-11T04:50:26;15.80;99.90
36716;DHT22;22699;51.034;3.730;2022-09-11T04:52:53;15.80;99.90
36716;DHT22;22699;51.034;3.730;2022-09-11T04:55:21;15.60;99.90
36716;DHT22;22699;51.034;3.730;2022-09-11T04:57:47;15.80;99.90
36716;DHT22;22699;51.034;3.730;2022-09-11T05:00:13;15.70;99.90
36716;DHT22;22699;51.034;3.730;2022-09-11T05:02:39;15.70;99.90
36716;DHT22;22699;51.034;3.730;2022-09-11T05:05:07;15.60;99.90
36716;DHT22;22699;51.034;3.730;2022-09-11T05:07:35;15.60;99.90
36716;DHT22;22699;51.034;3.730;2022-09-11T05:10:00;15.50;99.90
36716;DHT22;22699;51.034;3.730;2022-09-11T05:12:28;15.50;99.90
36716;DHT22;22699;51.034;3.730;2022-09-11T05:14:54;15.50;99.90
36716;DHT22;22699;51.034;3.730;2022-09-11T05:17:21;15.60;99.90
36716;DHT22;22699;51.034;3.730;2022-09-11T05:19:46;15.70;99.90
36716;DHT22;22699;51.034;3.730;2022-09-11T05:22:14;15.70;99.90
36716;DHT22;22699;51.034;3.730;2022-09-11T05:24:43;15.90;99.90
36716;DHT22;22699;51.034;3.730;2022-09-11T05:27:08;15.60;99.90
36716;DHT22;22699;51.034;3.730;2022-09-11T05:29:37;15.70;99.90
36716;DHT22;22699;51.034;3.730;2022-09-11T05:32:04;15.80;99.90
36716;DHT22;22699;51.034;3.730;2022-09-11T05:34:32;15.60;99.90
36716;DHT22;22699;51.034;3.730;2022-09-11T05:36:59;15.70;99.90
36716;DHT22;22699;51.034;3.730;2022-09-11T05:39:26;15.70;99.90
36716;DHT22;22699;51.034;3.730;2022-09-11T05:41:53;15.70;99.90
36716;DHT22;22699;51.034;3.730;2022-09-11T05:44:20;15.70;99.90
36716;DHT22;22699;51.034;3.730;2022-09-11T05:46:46;15.70;99.90
36716;DHT22;22699;51.034;3.730;2022-09-11T05:49:14;15.80;99.90
36716;DHT22;22699;51.034;3.730;2022-09-11T05:51:42;15.60;99.90
36716;DHT22;22699;51.034;3.730;2022-09-11T05:54:11;15.70;99.90
36716;DHT22;22699;51.034;3.730;2022-09-11T05:56:36;15.80;99.90
36716;DHT22;22699;51.034;3.730;2022-09-11T05:59:07;15.70;99.90
36716;DHT22;22699;51.034;3.730;2022-09-11T06:01:36;15.70;99.90
36716;DHT22;22699;51.034;3.730;2022-09-11T06:04:02;15.90;99.90
36716;DHT22;22699;51.034;3.730;2022-09-11T06:06:27;16.00;99.90
36716;DHT22;22699;51.034;3.730;2022-09-11T06:08:54;15.90;99.90
36716;DHT22;22699;51.034;3.730;2022-09-11T06:11:22;15.90;99.90
36716;DHT22;22699;51.034;3.730;2022-09-11T06:13:49;16.00;99.90
36716;DHT22;22699;51.034;3.730;2022-09-11T06:16:18;15.90;99.90
36716;DHT22;22699;51.034;3.730;2022-09-11T06:18:44;16.00;99.90
36716;DHT22;22699;51.034;3.730;2022-09-11T06:21:13;16.20;99.90
36716;DHT22;22699;51.034;3.730;2022-09-11T06:23:44;16.20;99.90
36716;DHT22;22699;51.034;3.730;2022-09-11T06:26:13;16.40;99.90
36716;DHT22;22699;51.034;3.730;2022-09-11T06:28:40;16.30;99.90
36716;DHT22;22699;51.034;3.730;2022-09-11T06:31:08;16.30;99.90
36716;DHT22;22699;51.034;3.730;2022-09-11T06:33:36;16.40;99.90
36716;DHT22;22699;51.034;3.730;2022-09-11T06:36:06;16.50;99.90
36716;DHT22;22699;51.034;3.730;2022-09-11T06:38:33;16.60;99.90
36716;DHT22;22699;51.034;3.730;2022-09-11T06:41:04;16.80;99.90
36716;DHT22;22699;51.034;3.730;2022-09-11T06:43:30;16.80;99.90
36716;DHT22;22699;51.034;3.730;2022-09-11T06:46:28;16.90;99.90
36716;DHT22;22699;51.034;3.730;2022-09-11T06:48:54;17.10;99.90
36716;DHT22;22699;51.034;3.730;2022-09-11T06:51:21;17.00;99.90
36716;DHT22;22699;51.034;3.730;2022-09-11T06:53:48;17.00;99.90
36716;DHT22;22699;51.034;3.730;2022-09-11T06:56:19;17.00;99.90
36716;DHT22;22699;51.034;3.730;2022-09-11T06:58:46;17.20;99.90
36716;DHT22;22699;51.034;3.730;2022-09-11T07:01:17;17.30;99.90
36716;DHT22;22699;51.034;3.730;2022-09-11T07:03:46;17.40;99.90
36716;DHT22;22699;51.034;3.730;2022-09-11T07:06:13;17.50;99.90
36716;DHT22;22699;51.034;3.730;2022-09-11T07:08:53;17.50;99.90
36716;DHT22;22699;51.034;3.730;2022-09-11T07:11:19;17.70;99.90
36716;DHT22;22699;51.034;3.730;2022-09-11T07:13:49;17.70;99.90
36716;DHT22;22699;51.034;3.730;2022-09-11T07:16:15;18.00;99.90
36716;DHT22;22699;51.034;3.730;2022-09-11T07:18:46;18.00;99.90
36716;DHT22;22699;51.034;3.730;2022-09-11T07:21:14;18.30;99.90
36716;DHT22;22699;51.034;3.730;2022-09-11T07:23:41;18.40;99.90
36716;DHT22;22699;51.034;3.730;2022-09-11T07:26:11;18.20;99.90
36716;DHT22;22699;51.034;3.730;2022-09-11T07:28:38;18.10;99.90
36716;DHT22;22699;51.034;3.730;2022-09-11T07:33:31;18.30;99.90
36716;DHT22;22699;51.034;3.730;2022-09-11T07:35:56;18.50;99.90
36716;DHT22;22699;51.034;3.730;2022-09-11T07:38:22;18.90;99.90
36716;DHT22;22699;51.034;3.730;2022-09-11T07:40:47;19.50;99.90
36716;DHT22;22699;51.034;3.730;2022-09-11T07:43:15;21.40;99.90
36716;DHT22;22699;51.034;3.730;2022-09-11T07:45:41;24.60;99.90
36716;DHT22;22699;51.034;3.730;2022-09-11T07:48:07;28.00;99.30
36716;DHT22;22699;51.034;3.730;2022-09-11T07:50:32;31.00;88.00
36716;DHT22;22699;51.034;3.730;2022-09-11T07:52:58;33.30;78.40
36716;DHT22;22699;51.034;3.730;2022-09-11T07:55:24;35.40;68.70
36716;DHT22;22699;51.034;3.730;2022-09-11T07:57:49;38.10;61.20
36716;DHT22;22699;51.034;3.730;2022-09-11T08:00:16;39.80;57.20
36716;DHT22;22699;51.034;3.730;2022-09-11T08:02:42;40.30;53.60
36716;DHT22;22699;51.034;3.730;2022-09-11T08:05:08;40.50;52.40
36716;DHT22;22699;51.034;3.730;2022-09-11T08:07:37;41.60;50.90
36716;DHT22;22699;51.034;3.730;2022-09-11T08:10:06;42.50;48.90
36716;DHT22;22699;51.034;3.730;2022-09-11T08:12:32;43.50;48.00
36716;DHT22;22699;51.034;3.730;2022-09-11T08:15:02;43.80;46.40
36716;DHT22;22699;51.034;3.730;2022-09-11T08:17:28;44.60;45.70
36716;DHT22;22699;51.034;3.730;2022-09-11T08:19:56;45.80;44.30
36716;DHT22;22699;51.034;3.730;2022-09-11T08:22:21;46.40;42.80
36716;DHT22;22699;51.034;3.730;2022-09-11T08:24:47;47.70;42.10
36716;DHT22;22699;51.034;3.730;2022-09-11T08:27:13;48.80;40.60
36716;DHT22;22699;51.034;3.730;2022-09-11T08:29:40;49.90;39.60
36716;DHT22;22699;51.034;3.730;2022-09-11T08:32:06;50.80;38.70
36716;DHT22;22699;51.034;3.730;2022-09-11T08:34:32;51.20;37.30
36716;DHT22;22699;51.034;3.730;2022-09-11T08:36:59;51.60;36.60
36716;DHT22;22699;51.034;3.730;2022-09-11T08:39:26;52.00;36.60
36716;DHT22;22699;51.034;3.730;2022-09-11T08:41:58;52.40;36.50
36716;DHT22;22699;51.034;3.730;2022-09-11T08:44:47;52.30;35.90
36716;DHT22;22699;51.034;3.730;2022-09-11T08:47:27;51.40;35.70
36716;DHT22;22699;51.034;3.730;2022-09-11T08:52:28;51.60;36.00
36716;DHT22;22699;51.034;3.730;2022-09-11T08:54:56;51.70;34.90
36716;DHT22;22699;51.034;3.730;2022-09-11T09:00:22;49.00;36.50
36716;DHT22;22699;51.034;3.730;2022-09-11T09:08:43;51.00;36.00
36716;DHT22;22699;51.034;3.730;2022-09-11T09:17:21;50.80;35.30
36716;DHT22;22699;51.034;3.730;2022-09-11T09:22:35;51.10;35.50
36716;DHT22;22699;51.034;3.730;2022-09-11T09:25:08;50.10;35.30
36716;DHT22;22699;51.034;3.730;2022-09-11T09:27:47;47.50;36.70
36716;DHT22;22699;51.034;3.730;2022-09-11T09:30:16;44.70;38.60
36716;DHT22;22699;51.034;3.730;2022-09-11T09:32:54;42.30;40.20
36716;DHT22;22699;51.034;3.730;2022-09-11T09:35:25;41.00;41.60
36716;DHT22;22699;51.034;3.730;2022-09-11T09:37:53;40.90;41.50
36716;DHT22;22699;51.034;3.730;2022-09-11T09:40:19;40.90;41.00
36716;DHT22;22699;51.034;3.730;2022-09-11T09:43:08;40.10;42.10
36716;DHT22;22699;51.034;3.730;2022-09-11T09:45:52;39.70;41.60
36716;DHT22;22699;51.034;3.730;2022-09-11T09:48:21;37.40;43.60
36716;DHT22;22699;51.034;3.730;2022-09-11T09:50:47;35.90;46.40
36716;DHT22;22699;51.034;3.730;2022-09-11T09:53:31;35.40;47.30
36716;DHT22;22699;51.034;3.730;2022-09-11T09:55:59;34.60;47.60
36716;DHT22;22699;51.034;3.730;2022-09-11T10:01:43;32.40;51.00
36716;DHT22;22699;51.034;3.730;2022-09-11T10:04:24;31.40;51.80
36716;DHT22;22699;51.034;3.730;2022-09-11T10:06:53;30.30;53.70
36716;DHT22;22699;51.034;3.730;2022-09-11T10:09:29;29.60;55.20
36716;DHT22;22699;51.034;3.730;2022-09-11T10:12:06;29.00;56.90
36716;DHT22;22699;51.034;3.730;2022-09-11T10:14:57;28.40;57.70
36716;DHT22;22699;51.034;3.730;2022-09-11T10:17:33;27.90;59.20
36716;DHT22;22699;51.034;3.730;2022-09-11T10:22:40;27.60;61.10
36716;DHT22;22699;51.034;3.730;2022-09-11T10:25:12;27.30;61.70
36716;DHT22;22699;51.034;3.730;2022-09-11T10:27:43;26.90;62.60
36716;DHT22;22699;51.034;3.730;2022-09-11T10:30:24;27.00;63.10
36716;DHT22;22699;51.034;3.730;2022-09-11T10:32:51;27.10;61.90
36716;DHT22;22699;51.034;3.730;2022-09-11T10:35:17;27.40;61.00
36716;DHT22;22699;51.034;3.730;2022-09-11T10:37:43;27.10;61.60
36716;DHT22;22699;51.034;3.730;2022-09-11T10:40:20;27.10;61.60
36716;DHT22;22699;51.034;3.730;2022-09-11T10:42:47;26.60;63.20
36716;DHT22;22699;51.034;3.730;2022-09-11T10:45:15;26.00;65.50
36716;DHT22;22699;51.034;3.730;2022-09-11T10:47:42;26.20;65.10
36716;DHT22;22699;51.034;3.730;2022-09-11T10:55:41;26.20;65.50
36716;DHT22;22699;51.034;3.730;2022-09-11T10:58:23;26.40;65.40
36716;DHT22;22699;51.034;3.730;2022-09-11T11:00:50;26.30;65.40
36716;DHT22;22699;51.034;3.730;2022-09-11T11:19:06;26.30;64.50
36716;DHT22;22699;51.034;3.730;2022-09-11T11:27:48;26.30;65.90
36716;DHT22;22699;51.034;3.730;2022-09-11T11:30:13;26.40;64.90
36716;DHT22;22699;51.034;3.730;2022-09-11T11:35:40;25.90;66.50
36716;DHT22;22699;51.034;3.730;2022-09-11T11:38:18;25.50;68.20
36716;DHT22;22699;51.034;3.730;2022-09-11T11:40:55;25.50;69.30
36716;DHT22;22699;51.034;3.730;2022-09-11T11:43:28;25.80;69.00
36716;DHT22;22699;51.034;3.730;2022-09-11T11:46:07;25.80;69.40
36716;DHT22;22699;51.034;3.730;2022-09-11T11:48:57;25.50;68.80
36716;DHT22;22699;51.034;3.730;2022-09-11T11:51:33;25.20;69.20
36716;DHT22;22699;51.034;3.730;2022-09-11T11:54:29;24.70;71.90
36716;DHT22;22699;51.034;3.730;2022-09-11T11:57:05;24.50;73.50
36716;DHT22;22699;51.034;3.730;2022-09-11T11:59:55;24.40;73.60
36716;DHT22;22699;51.034;3.730;2022-09-11T12:05:23;24.20;72.70
36716;DHT22;22699;51.034;3.730;2022-09-11T12:07:53;24.00;74.00
36716;DHT22;22699;51.034;3.730;2022-09-11T12:10:58;24.00;74.30
36716;DHT22;22699;51.034;3.730;2022-09-11T12:13:32;23.80;75.20
36716;DHT22;22699;51.034;3.730;2022-09-11T12:16:27;23.90;75.40
36716;DHT22;22699;51.034;3.730;2022-09-11T12:22:31;24.30;73.90
36716;DHT22;22699;51.034;3.730;2022-09-11T12:24:52;24.20;74.00
36716;DHT22;22699;51.034;3.730;2022-09-11T12:32:50;24.30;74.30
36716;DHT22;22699;51.034;3.730;2022-09-11T12:35:49;24.40;73.90
36716;DHT22;22699;51.034;3.730;2022-09-11T12:38:56;24.80;72.50
36716;DHT22;22699;51.034;3.730;2022-09-11T12:41:30;25.10;72.00
36716;DHT22;22699;51.034;3.730;2022-09-11T12:43:56;25.50;71.00
36716;DHT22;22699;51.034;3.730;2022-09-11T12:51:41;25.00;72.00
36716;DHT22;22699;51.034;3.730;2022-09-11T12:54:36;25.00;71.50
36716;DHT22;22699;51.034;3.730;2022-09-11T12:59:42;24.80;70.80
36716;DHT22;22699;51.034;3.730;2022-09-11T13:04:59;24.80;70.40
36716;DHT22;22699;51.034;3.730;2022-09-11T13:07:41;24.70;71.20
36716;DHT22;22699;51.034;3.730;2022-09-11T13:10:20;24.90;71.20
36716;DHT22;22699;51.034;3.730;2022-09-11T13:12:52;24.80;70.60
36716;DHT22;22699;51.034;3.730;2022-09-11T13:15:40;25.10;70.60
36716;DHT22;22699;51.034;3.730;2022-09-11T13:18:29;25.20;69.90
36716;DHT22;22699;51.034;3.730;2022-09-11T13:21:00;25.70;69.30
36716;DHT22;22699;51.034;3.730;2022-09-11T13:23:28;26.00;69.30
36716;DHT22;22699;51.034;3.730;2022-09-11T13:25:55;26.10;69.20
36716;DHT22;22699;51.034;3.730;2022-09-11T13:28:23;26.30;68.40
36716;DHT22;22699;51.034;3.730;2022-09-11T13:30:59;25.10;69.90
36716;DHT22;22699;51.034;3.730;2022-09-11T13:33:29;24.40;73.20
36716;DHT22;22699;51.034;3.730;2022-09-11T13:36:00;24.20;74.00
36716;DHT22;22699;51.034;3.730;2022-09-11T13:38:35;24.30;73.50
36716;DHT22;22699;51.034;3.730;2022-09-11T13:41:12;24.00;73.90
36716;DHT22;22699;51.034;3.730;2022-09-11T13:43:48;23.80;73.50
36716;DHT22;22699;51.034;3.730;2022-09-11T13:48:40;23.70;73.20
36716;DHT22;22699;51.034;3.730;2022-09-11T13:51:28;23.70;73.20
36716;DHT22;22699;51.034;3.730;2022-09-11T13:54:07;24.00;72.60
36716;DHT22;22699;51.034;3.730;2022-09-11T14:01:53;24.40;72.70
36716;DHT22;22699;51.034;3.730;2022-09-11T14:04:20;24.50;73.00
36716;DHT22;22699;51.034;3.730;2022-09-11T14:06:46;24.50;73.30
36716;DHT22;22699;51.034;3.730;2022-09-11T14:09:17;24.40;73.10
36716;DHT22;22699;51.034;3.730;2022-09-11T14:11:44;23.90;75.00
36716;DHT22;22699;51.034;3.730;2022-09-11T14:14:21;23.70;75.40
36716;DHT22;22699;51.034;3.730;2022-09-11T14:16:51;23.70;76.00
36716;DHT22;22699;51.034;3.730;2022-09-11T14:19:22;23.70;77.30
36716;DHT22;22699;51.034;3.730;2022-09-11T14:21:49;23.90;77.30
36716;DHT22;22699;51.034;3.730;2022-09-11T14:26:52;23.50;77.40
36716;DHT22;22699;51.034;3.730;2022-09-11T14:29:31;23.40;77.60
36716;DHT22;22699;51.034;3.730;2022-09-11T14:32:30;23.60;77.70
36716;DHT22;22699;51.034;3.730;2022-09-11T14:35:04;23.50;78.80
36716;DHT22;22699;51.034;3.730;2022-09-11T14:37:38;23.60;79.30
36716;DHT22;22699;51.034;3.730;2022-09-11T14:40:16;24.00;78.80
36716;DHT22;22699;51.034;3.730;2022-09-11T14:42:42;24.20;77.50
36716;DHT22;22699;51.034;3.730;2022-09-11T14:45:12;24.40;77.20
36716;DHT22;22699;51.034;3.730;2022-09-11T14:47:45;24.20;77.70
36716;DHT22;22699;51.034;3.730;2022-09-11T14:56:23;24.60;76.50
36716;DHT22;22699;51.034;3.730;2022-09-11T14:58:49;24.70;76.30
36716;DHT22;22699;51.034;3.730;2022-09-11T15:01:14;24.70;76.00
36716;DHT22;22699;51.034;3.730;2022-09-11T15:03:43;24.90;76.20
36716;DHT22;22699;51.034;3.730;2022-09-11T15:06:16;25.00;75.10
36716;DHT22;22699;51.034;3.730;2022-09-11T15:08:46;25.10;74.90
36716;DHT22;22699;51.034;3.730;2022-09-11T15:11:15;25.10;74.40
36716;DHT22;22699;51.034;3.730;2022-09-11T15:13:47;25.10;75.10
36716;DHT22;22699;51.034;3.730;2022-09-11T15:16:13;25.10;74.80
36716;DHT22;22699;51.034;3.730;2022-09-11T15:18:41;25.60;73.90
36716;DHT22;22699;51.034;3.730;2022-09-11T15:21:16;25.60;73.30
36716;DHT22;22699;51.034;3.730;2022-09-11T15:23:45;25.70;73.00
36716;DHT22;22699;51.034;3.730;2022-09-11T15:26:16;25.40;72.80
36716;DHT22;22699;51.034;3.730;2022-09-11T15:28:44;25.50;72.80
36716;DHT22;22699;51.034;3.730;2022-09-11T15:31:23;25.50;72.70
36716;DHT22;22699;51.034;3.730;2022-09-11T15:33:52;25.50;71.80
36716;DHT22;22699;51.034;3.730;2022-09-11T15:36:20;25.10;72.70
36716;DHT22;22699;51.034;3.730;2022-09-11T15:38:54;24.40;74.00
36716;DHT22;22699;51.034;3.730;2022-09-11T15:41:24;23.90;77.60
36716;DHT22;22699;51.034;3.730;2022-09-11T15:44:01;23.70;78.40
36716;DHT22;22699;51.034;3.730;2022-09-11T15:46:50;24.00;77.80
36716;DHT22;22699;51.034;3.730;2022-09-11T15:49:23;24.00;78.00
36716;DHT22;22699;51.034;3.730;2022-09-11T15:51:52;24.20;78.20
36716;DHT22;22699;51.034;3.730;2022-09-11T15:54:27;24.20;78.00
36716;DHT22;22699;51.034;3.730;2022-09-11T15:57:05;24.10;78.20
36716;DHT22;22699;51.034;3.730;2022-09-11T15:59:38;23.70;78.50
36716;DHT22;22699;51.034;3.730;2022-09-11T16:02:09;23.40;79.40
36716;DHT22;22699;51.034;3.730;2022-09-11T16:04:44;23.40;79.80
36716;DHT22;22699;51.034;3.730;2022-09-11T16:07:18;23.60;80.00
36716;DHT22;22699;51.034;3.730;2022-09-11T16:09:47;23.80;79.60
36716;DHT22;22699;51.034;3.730;2022-09-11T16:12:15;23.80;79.90
36716;DHT22;22699;51.034;3.730;2022-09-11T16:14:41;24.00;78.60
36716;DHT22;22699;51.034;3.730;2022-09-11T16:17:09;23.60;78.40
36716;DHT22;22699;51.034;3.730;2022-09-11T16:19:35;23.40;79.30
36716;DHT22;22699;51.034;3.730;2022-09-11T16:22:02;23.10;80.20
36716;DHT22;22699;51.034;3.730;2022-09-11T16:24:33;23.20;81.10
36716;DHT22;22699;51.034;3.730;2022-09-11T16:27:07;23.40;82.20
36716;DHT22;22699;51.034;3.730;2022-09-11T16:29:35;23.50;82.10
36716;DHT22;22699;51.034;3.730;2022-09-11T16:32:02;23.70;81.90
36716;DHT22;22699;51.034;3.730;2022-09-11T16:34:31;23.60;82.00
36716;DHT22;22699;51.034;3.730;2022-09-11T16:36:58;23.60;82.10
36716;DHT22;22699;51.034;3.730;2022-09-11T16:39:25;23.50;82.70
36716;DHT22;22699;51.034;3.730;2022-09-11T16:41:53;23.50;83.00
36716;DHT22;22699;51.034;3.730;2022-09-11T16:44:23;23.60;83.10
36716;DHT22;22699;51.034;3.730;2022-09-11T16:46:50;23.50;83.20
36716;DHT22;22699;51.034;3.730;2022-09-11T16:49:18;23.60;83.50
36716;DHT22;22699;51.034;3.730;2022-09-11T16:51:46;23.50;83.90
36716;DHT22;22699;51.034;3.730;2022-09-11T16:54:15;23.30;84.30
36716;DHT22;22699;51.034;3.730;2022-09-11T16:56:41;23.30;84.60
36716;DHT22;22699;51.034;3.730;2022-09-11T16:59:07;23.30;85.30
36716;DHT22;22699;51.034;3.730;2022-09-11T17:01:33;23.40;84.70
36716;DHT22;22699;51.034;3.730;2022-09-11T17:03:59;23.30;85.20
36716;DHT22;22699;51.034;3.730;2022-09-11T17:06:26;23.40;84.80
36716;DHT22;22699;51.034;3.730;2022-09-11T17:08:57;23.30;85.10
36716;DHT22;22699;51.034;3.730;2022-09-11T17:11:25;23.30;85.50
36716;DHT22;22699;51.034;3.730;2022-09-11T17:13:52;23.20;85.80
36716;DHT22;22699;51.034;3.730;2022-09-11T17:16:21;23.20;85.90
36716;DHT22;22699;51.034;3.730;2022-09-11T17:18:53;23.20;85.80
36716;DHT22;22699;51.034;3.730;2022-09-11T17:21:21;23.20;85.90
36716;DHT22;22699;51.034;3.730;2022-09-11T17:23:49;23.30;85.90
36716;DHT22;22699;51.034;3.730;2022-09-11T17:26:16;23.20;86.20
36716;DHT22;22699;51.034;3.730;2022-09-11T17:28:45;23.30;86.10
36716;DHT22;22699;51.034;3.730;2022-09-11T17:31:12;23.10;86.30
36716;DHT22;22699;51.034;3.730;2022-09-11T17:33:40;22.80;86.90
36716;DHT22;22699;51.034;3.730;2022-09-11T17:36:08;23.00;87.30
36716;DHT22;22699;51.034;3.730;2022-09-11T17:38:35;23.00;87.00
36716;DHT22;22699;51.034;3.730;2022-09-11T17:41:03;23.00;87.30
36716;DHT22;22699;51.034;3.730;2022-09-11T17:43:30;23.00;87.40
36716;DHT22;22699;51.034;3.730;2022-09-11T17:46:12;23.00;87.20
36716;DHT22;22699;51.034;3.730;2022-09-11T17:48:39;22.90;87.50
36716;DHT22;22699;51.034;3.730;2022-09-11T17:51:08;22.80;87.70
36716;DHT22;22699;51.034;3.730;2022-09-11T17:53:39;22.70;88.20